Terminal Aerodrome Forecast
Issued by NWS Grand Forks, ND

Home | Current Version | Previous Version | Text Only | Print | Product List | Glossary Off
Versions: 1 2 3 4 5 6 7 8 9 10 11 12 13 14 15 16

000
FTUS43 KFGF 241100
TAFFAR
TAF
KFAR 241133Z 2412/2512 VRB06KT P6SM SCT090
     FM241800 35007KT P6SM BKN050
     FM242100 01010KT 3SM BR OVC025=

USA.gov is the U.S. government's official web portal to all federal, state and local government web resources and services.